McKinleyville, CA

2:52 AM PST on January 23, 2017 (GMT -0800)
| | Change Station
Active Advisory: Hazardous Seas Warning

Elev -9999 ft 0.00 °N, 0.00 °E | Updated

Light Rain
Light Rain
°F
Feels Like °F
N
Wind Variable Wind from North
Gusts mph

Today
High -- | Low -- °F
--% Chance of Precip.
Yesterday
High -- | Low -- °F
Precip. -- in
Pressure 29.69 in
Visibility 10.0 miles
Clouds Mostly Cloudy 3900 ft
Overcast 6000 ft
Dew Point Not available.
Humidity Not available.
Rainfall --
Snow Depth Not available.
7:34 AM 5:23 PM
Waning Crescent, 19% visible
METAR KACV 230953Z AUTO 17010KT 10SM -RA BKN039 OVC060 06/03 A2966 RMK AO2 RAB51 SLP052 P0001 T00560033
Pressure 29.69 in
Visibility 10.0 miles
Clouds Mostly Cloudy 3900 ft
Overcast 6000 ft
Dew Point Not available.
Humidity Not available.
Rainfall --
Snow Depth Not available.
7:34 AM 5:23 PM
Waning Crescent, 19% visible
METAR KACV 230953Z AUTO 17010KT 10SM -RA BKN039 OVC060 06/03 A2966 RMK AO2 RAB51 SLP052 P0001 T00560033

Get Your Daily Forecast Email!

Thanks for signing up!

Be on the lookout for a verification email in your inbox.

You'll start receiving the daily forecast at 8 AM.

×

10-Day Weather Forecast

Almanac

Astronomy

Jan. 23, 2017 Rise Set
Actual Time
Civil Twilight
Nautical Twilight
Astronomical Twilight
Moon
Length of Visible Light
Length of Day
Tomorrow will be .
, % of the Moon is Illuminated

Today's Extremes

State Highs State Lows

Community

WunderPhotos

Upload Photos

1,962,540 photos uploaded!

WunderBlog® & News

Nearby

Air Quality

  Air Quality AQ Index Pollutant
Not available.

Snow Depth

Station Depth Elevation

Earthquake Activity

City Distance Mag. Time & Date
Minimum magnitude displayed is 2.5.

Coastal Water Temperatures

Place Temperature

Stations

Nearby Weather Stations

Station Location Temp. Windchill Dew Point Humidity Wind Precip. Elev Updated Type
                   

Watches & Warnings

Hazardous Seas Warning
Issued: 2:21 AM PST Jan. 23, 2017 – National Weather Service

... Hazardous seas warning now in effect until 4 am PST Tuesday...

* winds... SW 10 to 20 kt with gusts to 30 kt. Winds will subside
this evening.

* Waves... seas will remain elevated through tonight as a westerly
swell persists. Wave heights will be around 15 to 22 feet with
wave periods of around 15 seconds.

Precautionary/preparedness actions...

A hazardous seas warning means hazardous sea conditions are
imminent or occurring. Recreational boaters should remain in
port... or take shelter until waves subside. Commercial vessels
should prepare for rough seas and consider remaining in port or
taking shelter in port until hazardous seas subside.